createdAt,value
2023-03-22T00:01:27.646Z,9.95
2023-03-22T00:03:54.586Z,9.73
2023-03-22T00:06:21.425Z,9.74
2023-03-22T00:08:53.269Z,9.71
2023-03-22T00:11:22.740Z,9.66
2023-03-22T00:13:52.669Z,9.62
2023-03-22T00:16:20.036Z,9.69
2023-03-22T00:18:47.038Z,9.59
2023-03-22T00:21:15.878Z,9.52
2023-03-22T00:23:43.518Z,9.52
2023-03-22T00:26:12.219Z,9.53
2023-03-22T00:28:39.834Z,9.51
2023-03-22T00:31:07.345Z,9.66
2023-03-22T00:33:34.863Z,9.66
2023-03-22T00:36:04.996Z,9.69
2023-03-22T00:38:42.892Z,9.54
2023-03-22T00:41:22.801Z,9.77
2023-03-22T00:43:51.211Z,9.77
2023-03-22T00:46:20.741Z,9.69
2023-03-22T00:48:47.970Z,9.57
2023-03-22T00:51:15.963Z,9.73
2023-03-22T00:53:43.814Z,9.33
2023-03-22T00:56:15.867Z,9.35
2023-03-22T00:58:57.947Z,9.22
2023-03-22T01:01:24.989Z,9.26
2023-03-22T01:03:51.852Z,9.09
2023-03-22T01:06:18.986Z,9.18
2023-03-22T01:08:45.845Z,9.22
2023-03-22T01:11:13.045Z,9.22
2023-03-22T01:13:41.959Z,9.20
2023-03-22T01:16:10.012Z,9.17
2023-03-22T01:18:37.592Z,9.15
2023-03-22T01:21:05.360Z,9.24
2023-03-22T01:23:32.517Z,9.19
2023-03-22T01:25:59.647Z,9.07
2023-03-22T01:28:27.299Z,8.82
2023-03-22T01:30:55.484Z,8.87
2023-03-22T01:33:22.641Z,8.93
2023-03-22T01:35:51.054Z,8.92
2023-03-22T01:38:18.171Z,8.82
2023-03-22T01:40:53.275Z,8.87
2023-03-22T01:43:20.974Z,8.94
2023-03-22T01:45:53.126Z,9.11
2023-03-22T01:48:34.273Z,9.21
2023-03-22T01:51:12.273Z,9.21
2023-03-22T01:54:39.310Z,9.28
2023-03-22T01:57:19.481Z,9.34
2023-03-22T01:59:47.606Z,9.30
2023-03-22T02:02:40.541Z,9.29
2023-03-22T02:05:22.323Z,9.06
2023-03-22T02:07:50.677Z,9.26
2023-03-22T02:10:26.030Z,9.28
2023-03-22T02:13:31.835Z,9.33
2023-03-22T02:16:34.854Z,9.40
2023-03-22T02:19:29.428Z,9.30
2023-03-22T02:22:32.133Z,9.39
2023-03-22T02:25:35.923Z,9.44
2023-03-22T02:28:15.780Z,9.32
2023-03-22T02:31:01.105Z,9.27
2023-03-22T02:33:54.587Z,9.35
2023-03-22T02:36:46.265Z,9.38
2023-03-22T02:39:31.611Z,8.89
2023-03-22T02:42:07.736Z,9.08
2023-03-22T02:44:42.303Z,9.14
2023-03-22T02:47:24.745Z,9.23
2023-03-22T02:50:29.466Z,9.28
2023-03-22T02:53:18.866Z,9.22
2023-03-22T02:55:55.871Z,8.98
2023-03-22T02:58:35.868Z,9.11
2023-03-22T03:01:12.216Z,9.14
2023-03-22T03:03:39.788Z,9.11
2023-03-22T03:06:17.162Z,9.16
2023-03-22T03:08:46.866Z,9.20
2023-03-22T03:11:14.251Z,8.86
2023-03-22T03:13:42.021Z,8.94
2023-03-22T03:16:13.370Z,8.85
2023-03-22T03:18:46.302Z,8.82
2023-03-22T03:21:32.789Z,8.90
2023-03-22T03:24:11.455Z,8.69
2023-03-22T03:26:56.679Z,8.68
2023-03-22T03:29:44.070Z,8.69
2023-03-22T03:32:28.537Z,8.74
2023-03-22T03:35:05.528Z,8.75
2023-03-22T03:37:48.394Z,8.90
2023-03-22T03:40:23.236Z,8.98
2023-03-22T03:42:55.999Z,8.93
2023-03-22T03:45:25.161Z,8.84
2023-03-22T03:47:58.116Z,8.91
2023-03-22T03:50:26.918Z,9.00
2023-03-22T03:52:55.982Z,8.97
2023-03-22T03:55:24.121Z,8.83
2023-03-22T03:57:51.044Z,8.85
2023-03-22T04:00:18.960Z,8.96
2023-03-22T04:03:18.571Z,9.06
2023-03-22T04:06:04.256Z,9.03
2023-03-22T04:08:35.963Z,9.02
2023-03-22T04:11:03.248Z,8.92
2023-03-22T04:13:31.600Z,8.82
2023-03-22T04:16:02.367Z,8.90
2023-03-22T04:18:33.645Z,8.75
2023-03-22T04:21:03.849Z,8.57
2023-03-22T04:23:38.045Z,8.66
2023-03-22T04:26:05.974Z,8.65
2023-03-22T04:28:43.494Z,8.80
2023-03-22T04:31:12.281Z,8.82
2023-03-22T04:34:05.846Z,8.87
2023-03-22T04:36:49.805Z,8.93
2023-03-22T04:39:37.237Z,8.95
2023-03-22T04:42:25.398Z,8.89
2023-03-22T04:45:04.097Z,8.90
2023-03-22T04:47:31.666Z,8.77
2023-03-22T04:49:59.728Z,8.93
2023-03-22T04:52:28.330Z,8.93
2023-03-22T04:54:56.646Z,9.06
2023-03-22T04:57:24.789Z,8.99
2023-03-22T04:59:51.879Z,8.97
2023-03-22T05:02:18.847Z,9.08
2023-03-22T05:04:47.894Z,9.04
2023-03-22T05:07:34.898Z,9.00
2023-03-22T05:10:03.669Z,9.00
2023-03-22T05:12:31.337Z,9.11
2023-03-22T05:15:06.185Z,9.16
2023-03-22T05:17:36.656Z,9.15
2023-03-22T05:20:10.412Z,9.20
2023-03-22T05:22:40.989Z,9.25
2023-03-22T05:25:10.791Z,9.15
2023-03-22T05:27:40.669Z,9.26
2023-03-22T05:30:33.880Z,9.24
2023-03-22T05:33:21.675Z,9.23
2023-03-22T05:35:51.974Z,9.19
2023-03-22T05:38:19.258Z,9.37
2023-03-22T05:40:50.439Z,9.38
2023-03-22T05:43:17.860Z,9.32
2023-03-22T05:45:49.204Z,9.29
2023-03-22T05:48:31.968Z,9.35
2023-03-22T05:50:58.918Z,9.45
2023-03-22T05:53:31.306Z,9.39
2023-03-22T05:56:05.439Z,9.49
2023-03-22T05:58:34.006Z,9.79
2023-03-22T06:01:06.795Z,9.90
2023-03-22T06:04:03.089Z,9.93
2023-03-22T06:06:50.594Z,10.03
2023-03-22T06:09:32.797Z,10.33
2023-03-22T06:12:01.242Z,10.17
2023-03-22T06:14:28.981Z,10.24
2023-03-22T06:17:31.541Z,10.12
2023-03-22T06:19:58.874Z,10.23
2023-03-22T06:22:26.016Z,10.35
2023-03-22T06:24:52.835Z,10.30
2023-03-22T06:27:31.128Z,10.28
2023-03-22T06:29:58.124Z,10.07
2023-03-22T06:32:27.180Z,10.18
2023-03-22T06:34:56.033Z,10.11
2023-03-22T06:37:24.586Z,10.24
2023-03-22T06:39:52.331Z,10.48
2023-03-22T06:42:21.937Z,10.35
2023-03-22T06:44:59.077Z,10.69
2023-03-22T06:47:29.401Z,10.68
2023-03-22T06:50:05.859Z,10.74
2023-03-22T06:52:58.639Z,10.56
2023-03-22T06:55:26.330Z,10.75
2023-03-22T06:57:53.463Z,11.05
2023-03-22T07:00:21.162Z,11.27
2023-03-22T07:02:48.073Z,11.17
2023-03-22T07:05:31.636Z,10.98
2023-03-22T07:07:58.583Z,11.15
2023-03-22T07:10:26.804Z,11.25
2023-03-22T07:12:53.614Z,11.12
2023-03-22T07:15:24.436Z,11.23
2023-03-22T07:17:58.062Z,10.96
2023-03-22T07:20:24.989Z,11.10
2023-03-22T07:22:51.878Z,11.23
2023-03-22T07:25:21.082Z,11.13
2023-03-22T07:27:52.151Z,10.88
2023-03-22T07:30:21.426Z,10.95
2023-03-22T07:32:48.400Z,10.87
2023-03-22T07:35:16.930Z,10.78
2023-03-22T07:37:45.041Z,10.91
2023-03-22T07:40:21.288Z,10.77
2023-03-22T07:42:51.476Z,11.24
2023-03-22T07:45:36.837Z,11.03
2023-03-22T07:48:23.785Z,11.10
2023-03-22T07:51:06.130Z,11.10
2023-03-22T07:53:33.062Z,11.25
2023-03-22T07:56:00.650Z,11.22
2023-03-22T07:58:27.617Z,11.49
2023-03-22T08:00:56.940Z,11.23
2023-03-22T08:03:54.615Z,11.65
2023-03-22T08:06:42.868Z,11.68
2023-03-22T08:09:11.636Z,11.82
2023-03-22T08:11:38.582Z,11.61
2023-03-22T08:14:06.083Z,11.30
2023-03-22T08:16:36.068Z,11.54
2023-03-22T08:19:05.050Z,11.63
2023-03-22T08:21:36.337Z,11.57
2023-03-22T08:24:04.988Z,11.44
2023-03-22T08:26:37.983Z,11.59
2023-03-22T08:29:13.314Z,11.57
2023-03-22T08:31:47.142Z,11.55
2023-03-22T08:34:14.110Z,11.58
2023-03-22T08:36:41.169Z,11.25
2023-03-22T08:39:09.963Z,11.23
2023-03-22T08:41:51.063Z,11.04
2023-03-22T08:44:17.982Z,11.00
2023-03-22T08:46:44.863Z,10.97
2023-03-22T08:49:11.984Z,10.60
2023-03-22T08:51:42.896Z,10.67
2023-03-22T08:54:17.310Z,10.63
2023-03-22T08:56:50.439Z,10.67
2023-03-22T08:59:34.242Z,10.69
2023-03-22T09:02:17.457Z,10.62
2023-03-22T09:04:44.394Z,10.65
2023-03-22T09:07:12.111Z,10.49
2023-03-22T09:09:40.140Z,10.61
2023-03-22T09:12:07.808Z,10.57
2023-03-22T09:14:36.396Z,10.64
2023-03-22T09:17:05.263Z,10.84
2023-03-22T09:19:32.576Z,10.77
2023-03-22T09:21:59.558Z,10.67
2023-03-22T09:24:41.248Z,10.63
2023-03-22T09:27:08.414Z,11.06
2023-03-22T09:29:35.670Z,10.66
2023-03-22T09:32:07.376Z,10.60
2023-03-22T09:34:36.980Z,10.71
2023-03-22T09:37:04.865Z,10.82
2023-03-22T09:39:44.696Z,10.75
2023-03-22T09:42:28.360Z,10.84
2023-03-22T09:44:57.744Z,10.93
2023-03-22T09:47:48.820Z,11.39
2023-03-22T09:50:20.554Z,11.51
2023-03-22T09:52:48.064Z,11.92
2023-03-22T09:55:56.832Z,11.90
2023-03-22T09:58:45.552Z,12.11
2023-03-22T10:01:35.237Z,12.18
2023-03-22T10:04:10.399Z,12.44
2023-03-22T10:06:37.503Z,12.35
2023-03-22T10:09:34.932Z,12.54
2023-03-22T10:12:16.587Z,12.75
2023-03-22T10:14:57.707Z,12.68
2023-03-22T10:17:27.226Z,12.89
2023-03-22T10:20:18.718Z,12.33
2023-03-22T10:22:47.168Z,12.40
2023-03-22T10:25:20.012Z,12.56
2023-03-22T10:27:50.535Z,12.55
2023-03-22T10:30:23.808Z,12.53
2023-03-22T10:32:58.146Z,12.48
2023-03-22T10:35:25.995Z,12.51
2023-03-22T10:37:56.088Z,12.40
2023-03-22T10:40:33.259Z,12.51
2023-03-22T10:43:06.226Z,12.56
2023-03-22T10:45:35.669Z,12.62
2023-03-22T10:48:07.293Z,12.75
2023-03-22T10:50:37.205Z,12.97
2023-03-22T10:53:04.523Z,12.88
2023-03-22T10:55:31.360Z,12.91
2023-03-22T10:58:12.241Z,12.94
2023-03-22T11:00:44.054Z,12.96
2023-03-22T11:03:24.896Z,12.90
2023-03-22T11:06:02.710Z,12.89
2023-03-22T11:08:29.687Z,13.02
2023-03-22T11:11:00.377Z,13.16
2023-03-22T11:13:28.150Z,13.20
2023-03-22T11:16:01.429Z,13.32
2023-03-22T11:18:34.108Z,13.01
2023-03-22T11:21:07.680Z,13.06
2023-03-22T11:23:38.634Z,13.13
2023-03-22T11:26:09.990Z,12.95
2023-03-22T11:28:49.543Z,13.02
2023-03-22T11:31:19.252Z,12.85
2023-03-22T11:34:01.190Z,12.79
2023-03-22T11:36:29.356Z,12.65
2023-03-22T11:39:07.973Z,12.83
2023-03-22T11:41:36.843Z,12.82
2023-03-22T11:44:12.419Z,12.70
2023-03-22T11:46:40.358Z,12.48
2023-03-22T11:49:17.195Z,12.45
2023-03-22T11:51:44.422Z,12.50
2023-03-22T11:54:29.518Z,12.47
2023-03-22T11:57:02.079Z,12.64
2023-03-22T11:59:36.667Z,12.41
2023-03-22T12:02:23.799Z,12.37
2023-03-22T12:05:00.767Z,12.33
2023-03-22T12:07:29.885Z,12.25
2023-03-22T12:10:03.641Z,12.27
2023-03-22T12:12:37.214Z,12.26
2023-03-22T12:15:40.592Z,12.32
2023-03-22T12:18:22.878Z,12.21
2023-03-22T12:20:56.165Z,12.23
2023-03-22T12:23:26.640Z,12.39
2023-03-22T12:26:05.709Z,12.62
2023-03-22T12:28:48.533Z,12.67
2023-03-22T12:31:27.918Z,12.90
2023-03-22T12:33:57.944Z,12.99
2023-03-22T12:36:35.411Z,13.02
2023-03-22T12:39:03.795Z,13.14
2023-03-22T12:41:41.594Z,13.11
2023-03-22T12:44:24.679Z,13.15
2023-03-22T12:47:03.684Z,13.05
2023-03-22T12:49:59.072Z,13.21
2023-03-22T12:52:29.778Z,13.28
2023-03-22T12:55:01.563Z,13.37
2023-03-22T12:57:28.812Z,13.24
2023-03-22T13:00:00.508Z,13.28
2023-03-22T13:02:32.271Z,13.24
2023-03-22T13:05:02.198Z,13.20
2023-03-22T13:07:31.857Z,13.01
2023-03-22T13:10:21.725Z,13.15
2023-03-22T13:13:10.973Z,13.17
2023-03-22T13:15:42.639Z,12.94
2023-03-22T13:18:40.769Z,12.95
2023-03-22T13:21:22.922Z,12.80
2023-03-22T13:24:19.623Z,12.82
2023-03-22T13:26:51.597Z,12.89
2023-03-22T13:29:18.772Z,12.84
2023-03-22T13:31:47.729Z,12.75
2023-03-22T13:34:20.844Z,12.68
2023-03-22T13:36:56.481Z,12.73
2023-03-22T13:39:25.530Z,12.76
2023-03-22T13:42:22.881Z,12.43
2023-03-22T13:45:00.125Z,12.54
2023-03-22T13:48:02.053Z,12.66
2023-03-22T13:50:31.117Z,12.72
2023-03-22T13:53:05.915Z,12.74
2023-03-22T13:55:54.022Z,12.70
2023-03-22T13:58:45.498Z,12.82
2023-03-22T14:01:45.076Z,13.05
2023-03-22T14:04:16.248Z,12.85
2023-03-22T14:07:20.838Z,12.81
2023-03-22T14:10:21.524Z,12.76
2023-03-22T14:12:48.353Z,12.84
2023-03-22T14:15:19.062Z,12.76
2023-03-22T14:18:23.527Z,12.71
2023-03-22T14:20:55.569Z,12.60
